createdAt,value
2022-11-16T12:59:22.585Z,51.291328
2022-11-16T13:00:21.540Z,51.291119
2022-11-16T13:01:21.624Z,51.290878
2022-11-16T13:02:21.798Z,51.291309
2022-11-16T13:03:21.680Z,51.291153
2022-11-16T13:04:21.499Z,51.291145
2022-11-16T13:05:21.475Z,51.291058
2022-11-16T13:06:21.612Z,51.291241
2022-11-16T13:07:21.519Z,51.291264
2022-11-16T13:08:21.439Z,51.291351
2022-11-16T13:09:21.445Z,51.291798
2022-11-16T13:10:21.446Z,51.291649
2022-11-16T13:11:21.410Z,51.291405
2022-11-16T13:12:21.389Z,51.291218
2022-11-16T13:13:35.836Z,51.291153
2022-11-16T13:14:23.486Z,51.291157
2022-11-16T13:15:21.358Z,51.291088
2022-11-16T13:16:21.488Z,51.291039
2022-11-16T13:17:21.481Z,51.291004
2022-11-16T13:18:21.334Z,51.291122
2022-11-16T13:19:21.316Z,51.290859
2022-11-16T13:20:21.361Z,51.290882
2022-11-16T13:21:21.299Z,51.290985
2022-11-16T13:22:21.291Z,51.291019
2022-11-16T13:23:21.268Z,51.290745
2022-11-16T13:24:21.261Z,51.290874
2022-11-16T13:25:21.311Z,51.290615
2022-11-16T13:26:22.233Z,51.290768
2022-11-16T13:27:21.226Z,51.290649
2022-11-16T13:28:21.214Z,51.290710
2022-11-16T13:29:21.201Z,51.291153
2022-11-16T13:30:21.200Z,51.291256
2022-11-16T13:31:21.196Z,51.291443
2022-11-16T13:32:21.167Z,51.291302
2022-11-16T13:33:21.160Z,51.291245
2022-11-16T13:34:21.168Z,51.291157
2022-11-16T13:35:21.131Z,51.291149
2022-11-16T13:36:21.160Z,51.291210
2022-11-16T13:37:21.110Z,51.291302
2022-11-16T13:38:21.117Z,51.291229
2022-11-16T13:39:22.829Z,51.291351
2022-11-16T13:40:22.076Z,51.291286
2022-11-16T13:41:21.264Z,51.291260
2022-11-16T13:42:21.056Z,51.291340
2022-11-16T13:43:21.077Z,51.291279
2022-11-16T13:44:21.041Z,51.291344
2022-11-16T13:45:21.011Z,51.291103
2022-11-16T13:46:53.695Z,51.291187
2022-11-16T13:47:23.035Z,51.291279
2022-11-16T13:48:20.985Z,51.291218
2022-11-16T13:49:20.976Z,51.291241
2022-11-16T13:50:20.976Z,51.291023
2022-11-16T13:51:20.953Z,51.291157
2022-11-16T13:52:24.058Z,51.291103
2022-11-16T13:54:47.244Z,51.291397
2022-11-16T13:55:22.923Z,51.291309
2022-11-16T13:56:25.597Z,51.291233
